sensor_id;sensor_type;location;lat;lon;timestamp;temperature;humidity
22908;DHT22;11620;50.050;8.690;2023-04-25T00:01:48;8.30;99.90
22908;DHT22;11620;50.050;8.690;2023-04-25T00:04:34;8.30;99.90
22908;DHT22;11620;50.050;8.690;2023-04-25T00:07:21;8.30;99.90
22908;DHT22;11620;50.050;8.690;2023-04-25T00:10:08;8.20;99.90
22908;DHT22;11620;50.050;8.690;2023-04-25T00:12:54;8.00;99.90
22908;DHT22;11620;50.050;8.690;2023-04-25T00:15:41;8.00;99.90
22908;DHT22;11620;50.050;8.690;2023-04-25T00:18:27;7.90;99.90
22908;DHT22;11620;50.050;8.690;2023-04-25T00:21:19;7.80;99.90
22908;DHT22;11620;50.050;8.690;2023-04-25T00:24:07;7.70;99.90
22908;DHT22;11620;50.050;8.690;2023-04-25T00:26:53;7.70;99.90
22908;DHT22;11620;50.050;8.690;2023-04-25T00:29:39;7.70;99.90
22908;DHT22;11620;50.050;8.690;2023-04-25T00:32:26;7.70;99.90
22908;DHT22;11620;50.050;8.690;2023-04-25T00:35:12;7.60;99.90
22908;DHT22;11620;50.050;8.690;2023-04-25T00:37:59;7.60;99.90
22908;DHT22;11620;50.050;8.690;2023-04-25T00:40:45;7.50;99.90
22908;DHT22;11620;50.050;8.690;2023-04-25T00:43:32;7.40;99.90
22908;DHT22;11620;50.050;8.690;2023-04-25T00:46:18;7.40;99.90
22908;DHT22;11620;50.050;8.690;2023-04-25T00:49:05;7.50;99.90
22908;DHT22;11620;50.050;8.690;2023-04-25T00:51:51;7.40;99.90
22908;DHT22;11620;50.050;8.690;2023-04-25T00:54:38;7.20;99.90
22908;DHT22;11620;50.050;8.690;2023-04-25T00:57:24;7.10;99.90
22908;DHT22;11620;50.050;8.690;2023-04-25T01:00:11;7.00;99.90
22908;DHT22;11620;50.050;8.690;2023-04-25T01:03:00;7.00;99.90
22908;DHT22;11620;50.050;8.690;2023-04-25T01:05:46;7.00;99.90
22908;DHT22;11620;50.050;8.690;2023-04-25T01:08:33;7.00;99.90
22908;DHT22;11620;50.050;8.690;2023-04-25T01:11:20;7.10;99.90
22908;DHT22;11620;50.050;8.690;2023-04-25T01:14:06;7.00;99.90
22908;DHT22;11620;50.050;8.690;2023-04-25T01:16:53;7.10;99.90
22908;DHT22;11620;50.050;8.690;2023-04-25T01:19:39;7.10;99.90
22908;DHT22;11620;50.050;8.690;2023-04-25T01:22:25;7.10;99.90
22908;DHT22;11620;50.050;8.690;2023-04-25T01:25:12;7.00;99.90
22908;DHT22;11620;50.050;8.690;2023-04-25T01:27:58;7.10;99.90
22908;DHT22;11620;50.050;8.690;2023-04-25T01:30:45;7.10;99.90
22908;DHT22;11620;50.050;8.690;2023-04-25T01:33:32;7.30;99.90
22908;DHT22;11620;50.050;8.690;2023-04-25T01:36:19;7.30;99.90
22908;DHT22;11620;50.050;8.690;2023-04-25T01:39:06;7.10;99.90
22908;DHT22;11620;50.050;8.690;2023-04-25T01:41:52;7.10;99.90
22908;DHT22;11620;50.050;8.690;2023-04-25T01:44:39;7.10;99.90
22908;DHT22;11620;50.050;8.690;2023-04-25T01:47:25;7.20;99.90
22908;DHT22;11620;50.050;8.690;2023-04-25T01:50:11;7.30;99.90
22908;DHT22;11620;50.050;8.690;2023-04-25T01:52:58;7.20;99.90
22908;DHT22;11620;50.050;8.690;2023-04-25T01:55:44;7.20;99.90
22908;DHT22;11620;50.050;8.690;2023-04-25T01:58:30;7.30;99.90
22908;DHT22;11620;50.050;8.690;2023-04-25T02:01:17;7.50;99.90
22908;DHT22;11620;50.050;8.690;2023-04-25T02:04:03;7.60;99.90
22908;DHT22;11620;50.050;8.690;2023-04-25T02:06:49;7.50;99.90
22908;DHT22;11620;50.050;8.690;2023-04-25T02:09:36;7.50;99.90
22908;DHT22;11620;50.050;8.690;2023-04-25T02:12:22;7.60;99.90
22908;DHT22;11620;50.050;8.690;2023-04-25T02:15:08;7.60;99.90
22908;DHT22;11620;50.050;8.690;2023-04-25T02:17:55;7.60;99.90
22908;DHT22;11620;50.050;8.690;2023-04-25T02:20:42;7.50;99.90
22908;DHT22;11620;50.050;8.690;2023-04-25T02:23:29;7.50;99.90
22908;DHT22;11620;50.050;8.690;2023-04-25T02:26:15;7.50;99.90
22908;DHT22;11620;50.050;8.690;2023-04-25T02:29:02;7.50;99.90
22908;DHT22;11620;50.050;8.690;2023-04-25T02:31:48;7.50;99.90
22908;DHT22;11620;50.050;8.690;2023-04-25T02:34:34;7.20;99.90
22908;DHT22;11620;50.050;8.690;2023-04-25T02:37:21;7.30;99.90
22908;DHT22;11620;50.050;8.690;2023-04-25T02:40:07;7.40;99.90
22908;DHT22;11620;50.050;8.690;2023-04-25T02:42:54;7.40;99.90
22908;DHT22;11620;50.050;8.690;2023-04-25T02:45:40;7.40;99.90
22908;DHT22;11620;50.050;8.690;2023-04-25T02:48:27;7.50;99.90
22908;DHT22;11620;50.050;8.690;2023-04-25T02:51:14;7.60;99.90
22908;DHT22;11620;50.050;8.690;2023-04-25T02:54:02;7.70;99.90
22908;DHT22;11620;50.050;8.690;2023-04-25T02:56:49;7.70;99.90
22908;DHT22;11620;50.050;8.690;2023-04-25T02:59:35;7.70;99.90
22908;DHT22;11620;50.050;8.690;2023-04-25T03:02:22;7.70;99.90
22908;DHT22;11620;50.050;8.690;2023-04-25T03:05:08;7.70;99.90
22908;DHT22;11620;50.050;8.690;2023-04-25T03:07:55;7.70;99.90
22908;DHT22;11620;50.050;8.690;2023-04-25T03:10:41;7.70;99.90
22908;DHT22;11620;50.050;8.690;2023-04-25T03:13:27;7.80;99.90
22908;DHT22;11620;50.050;8.690;2023-04-25T03:16:15;7.80;99.90
22908;DHT22;11620;50.050;8.690;2023-04-25T03:19:03;7.80;99.90
22908;DHT22;11620;50.050;8.690;2023-04-25T03:21:49;7.70;99.90
22908;DHT22;11620;50.050;8.690;2023-04-25T03:24:35;7.70;99.90
22908;DHT22;11620;50.050;8.690;2023-04-25T03:27:23;7.70;99.90
22908;DHT22;11620;50.050;8.690;2023-04-25T03:30:09;7.70;99.90
22908;DHT22;11620;50.050;8.690;2023-04-25T03:32:56;7.70;99.90
22908;DHT22;11620;50.050;8.690;2023-04-25T03:35:42;7.60;99.90
22908;DHT22;11620;50.050;8.690;2023-04-25T03:38:28;7.60;99.90
22908;DHT22;11620;50.050;8.690;2023-04-25T03:41:15;7.70;99.90
22908;DHT22;11620;50.050;8.690;2023-04-25T03:44:01;7.70;99.90
22908;DHT22;11620;50.050;8.690;2023-04-25T03:46:47;7.70;99.90
22908;DHT22;11620;50.050;8.690;2023-04-25T03:49:34;7.60;99.90
22908;DHT22;11620;50.050;8.690;2023-04-25T03:52:21;7.60;99.90
22908;DHT22;11620;50.050;8.690;2023-04-25T03:55:07;7.60;99.90
22908;DHT22;11620;50.050;8.690;2023-04-25T03:57:54;7.60;99.90
22908;DHT22;11620;50.050;8.690;2023-04-25T04:00:40;7.60;99.90
22908;DHT22;11620;50.050;8.690;2023-04-25T04:03:26;7.60;99.90
22908;DHT22;11620;50.050;8.690;2023-04-25T04:06:13;7.60;99.90
22908;DHT22;11620;50.050;8.690;2023-04-25T04:08:59;7.60;99.90
22908;DHT22;11620;50.050;8.690;2023-04-25T04:11:46;7.60;99.90
22908;DHT22;11620;50.050;8.690;2023-04-25T04:14:32;7.50;99.90
22908;DHT22;11620;50.050;8.690;2023-04-25T04:17:19;7.50;99.90
22908;DHT22;11620;50.050;8.690;2023-04-25T04:20:05;7.50;99.90
22908;DHT22;11620;50.050;8.690;2023-04-25T04:22:52;7.50;99.90
22908;DHT22;11620;50.050;8.690;2023-04-25T04:25:39;7.50;99.90
22908;DHT22;11620;50.050;8.690;2023-04-25T04:28:26;7.50;99.90
22908;DHT22;11620;50.050;8.690;2023-04-25T04:31:12;7.50;99.90
22908;DHT22;11620;50.050;8.690;2023-04-25T04:34:01;7.50;99.90
22908;DHT22;11620;50.050;8.690;2023-04-25T04:36:47;7.40;99.90
22908;DHT22;11620;50.050;8.690;2023-04-25T04:39:34;7.40;99.90
22908;DHT22;11620;50.050;8.690;2023-04-25T04:42:21;7.40;99.90
22908;DHT22;11620;50.050;8.690;2023-04-25T04:45:07;7.40;99.90
22908;DHT22;11620;50.050;8.690;2023-04-25T04:47:54;7.40;99.90
22908;DHT22;11620;50.050;8.690;2023-04-25T04:50:43;7.40;99.90
22908;DHT22;11620;50.050;8.690;2023-04-25T04:53:31;7.40;99.90
22908;DHT22;11620;50.050;8.690;2023-04-25T04:56:18;7.40;99.90
22908;DHT22;11620;50.050;8.690;2023-04-25T04:59:07;7.40;99.90
22908;DHT22;11620;50.050;8.690;2023-04-25T05:01:53;7.40;99.90
22908;DHT22;11620;50.050;8.690;2023-04-25T05:04:39;7.40;99.90
22908;DHT22;11620;50.050;8.690;2023-04-25T05:07:26;7.40;99.90
22908;DHT22;11620;50.050;8.690;2023-04-25T05:10:12;7.30;99.90
22908;DHT22;11620;50.050;8.690;2023-04-25T05:12:59;7.30;99.90
22908;DHT22;11620;50.050;8.690;2023-04-25T05:15:45;7.30;99.90
22908;DHT22;11620;50.050;8.690;2023-04-25T05:18:31;7.20;99.90
22908;DHT22;11620;50.050;8.690;2023-04-25T05:21:17;7.30;99.90
22908;DHT22;11620;50.050;8.690;2023-04-25T05:24:04;7.30;99.90
22908;DHT22;11620;50.050;8.690;2023-04-25T05:26:50;7.30;99.90
22908;DHT22;11620;50.050;8.690;2023-04-25T05:29:37;7.40;99.90
22908;DHT22;11620;50.050;8.690;2023-04-25T05:32:23;7.40;99.90
22908;DHT22;11620;50.050;8.690;2023-04-25T05:35:11;7.50;99.90
22908;DHT22;11620;50.050;8.690;2023-04-25T05:37:57;7.60;99.90
22908;DHT22;11620;50.050;8.690;2023-04-25T05:40:44;7.60;99.90
22908;DHT22;11620;50.050;8.690;2023-04-25T05:43:30;7.60;99.90
22908;DHT22;11620;50.050;8.690;2023-04-25T05:46:17;7.60;99.90
22908;DHT22;11620;50.050;8.690;2023-04-25T05:49:03;7.70;99.90
22908;DHT22;11620;50.050;8.690;2023-04-25T05:51:49;7.70;99.90
22908;DHT22;11620;50.050;8.690;2023-04-25T05:54:36;7.70;99.90
22908;DHT22;11620;50.050;8.690;2023-04-25T05:57:23;7.70;99.90
22908;DHT22;11620;50.050;8.690;2023-04-25T06:00:12;7.80;99.90
22908;DHT22;11620;50.050;8.690;2023-04-25T06:02:59;7.90;99.90
22908;DHT22;11620;50.050;8.690;2023-04-25T06:05:45;8.00;99.90
22908;DHT22;11620;50.050;8.690;2023-04-25T06:08:31;8.10;99.90
22908;DHT22;11620;50.050;8.690;2023-04-25T06:11:18;8.10;99.90
22908;DHT22;11620;50.050;8.690;2023-04-25T06:14:05;8.10;99.90
22908;DHT22;11620;50.050;8.690;2023-04-25T06:16:51;8.10;99.90
22908;DHT22;11620;50.050;8.690;2023-04-25T06:19:37;8.10;99.90
22908;DHT22;11620;50.050;8.690;2023-04-25T06:22:24;8.00;99.90
22908;DHT22;11620;50.050;8.690;2023-04-25T06:25:10;8.20;99.90
22908;DHT22;11620;50.050;8.690;2023-04-25T06:27:56;8.50;99.90
22908;DHT22;11620;50.050;8.690;2023-04-25T06:30:43;8.80;99.90
22908;DHT22;11620;50.050;8.690;2023-04-25T06:33:29;8.90;99.90
22908;DHT22;11620;50.050;8.690;2023-04-25T06:36:15;8.60;99.90
22908;DHT22;11620;50.050;8.690;2023-04-25T06:39:02;8.20;99.90
22908;DHT22;11620;50.050;8.690;2023-04-25T06:41:49;8.50;99.90
22908;DHT22;11620;50.050;8.690;2023-04-25T06:44:35;8.80;99.90
22908;DHT22;11620;50.050;8.690;2023-04-25T06:47:21;9.10;99.90
22908;DHT22;11620;50.050;8.690;2023-04-25T06:50:08;9.40;99.90
22908;DHT22;11620;50.050;8.690;2023-04-25T06:52:55;9.70;99.90
22908;DHT22;11620;50.050;8.690;2023-04-25T06:55:41;9.70;99.90
22908;DHT22;11620;50.050;8.690;2023-04-25T06:58:27;10.00;99.90
22908;DHT22;11620;50.050;8.690;2023-04-25T07:01:14;10.10;99.90
22908;DHT22;11620;50.050;8.690;2023-04-25T07:04:00;9.80;99.90
22908;DHT22;11620;50.050;8.690;2023-04-25T07:06:46;10.10;99.90
22908;DHT22;11620;50.050;8.690;2023-04-25T07:09:34;10.40;99.90
22908;DHT22;11620;50.050;8.690;2023-04-25T07:12:20;10.60;99.90
22908;DHT22;11620;50.050;8.690;2023-04-25T07:15:07;10.90;99.90
22908;DHT22;11620;50.050;8.690;2023-04-25T07:17:56;10.70;99.90
22908;DHT22;11620;50.050;8.690;2023-04-25T07:20:42;10.60;99.90
22908;DHT22;11620;50.050;8.690;2023-04-25T07:23:28;10.60;99.90
22908;DHT22;11620;50.050;8.690;2023-04-25T07:26:14;10.50;99.90
22908;DHT22;11620;50.050;8.690;2023-04-25T07:29:01;10.50;99.90
22908;DHT22;11620;50.050;8.690;2023-04-25T07:31:47;10.40;99.90
22908;DHT22;11620;50.050;8.690;2023-04-25T07:34:33;10.30;99.90
22908;DHT22;11620;50.050;8.690;2023-04-25T07:37:23;10.30;99.90
22908;DHT22;11620;50.050;8.690;2023-04-25T07:40:09;10.50;99.90
22908;DHT22;11620;50.050;8.690;2023-04-25T07:42:56;10.60;99.90
22908;DHT22;11620;50.050;8.690;2023-04-25T07:45:43;10.60;99.90
22908;DHT22;11620;50.050;8.690;2023-04-25T07:48:29;10.40;99.90
22908;DHT22;11620;50.050;8.690;2023-04-25T07:51:16;10.30;99.90
22908;DHT22;11620;50.050;8.690;2023-04-25T07:54:02;10.30;99.90
22908;DHT22;11620;50.050;8.690;2023-04-25T07:56:49;10.20;99.90
22908;DHT22;11620;50.050;8.690;2023-04-25T07:59:35;10.20;99.90
22908;DHT22;11620;50.050;8.690;2023-04-25T08:02:21;10.10;99.90
22908;DHT22;11620;50.050;8.690;2023-04-25T08:05:08;10.20;99.90
22908;DHT22;11620;50.050;8.690;2023-04-25T08:07:57;10.70;99.90
22908;DHT22;11620;50.050;8.690;2023-04-25T08:10:43;11.40;99.90
22908;DHT22;11620;50.050;8.690;2023-04-25T08:13:30;11.50;99.90
22908;DHT22;11620;50.050;8.690;2023-04-25T08:16:16;11.50;99.90
22908;DHT22;11620;50.050;8.690;2023-04-25T08:19:02;11.60;99.90
22908;DHT22;11620;50.050;8.690;2023-04-25T08:21:49;11.90;99.90
22908;DHT22;11620;50.050;8.690;2023-04-25T08:24:37;12.20;99.90
22908;DHT22;11620;50.050;8.690;2023-04-25T08:27:24;12.70;99.90
22908;DHT22;11620;50.050;8.690;2023-04-25T08:30:11;13.20;99.90
22908;DHT22;11620;50.050;8.690;2023-04-25T08:32:57;13.20;99.90
22908;DHT22;11620;50.050;8.690;2023-04-25T08:35:44;12.90;99.90
22908;DHT22;11620;50.050;8.690;2023-04-25T08:38:30;12.80;99.90
22908;DHT22;11620;50.050;8.690;2023-04-25T08:41:18;12.50;99.90
22908;DHT22;11620;50.050;8.690;2023-04-25T08:44:09;12.30;99.90
22908;DHT22;11620;50.050;8.690;2023-04-25T08:46:56;12.30;99.90
22908;DHT22;11620;50.050;8.690;2023-04-25T08:49:45;12.30;99.90
22908;DHT22;11620;50.050;8.690;2023-04-25T08:52:43;12.10;99.90
22908;DHT22;11620;50.050;8.690;2023-04-25T08:55:31;11.90;99.90
22908;DHT22;11620;50.050;8.690;2023-04-25T08:58:18;11.90;99.90
22908;DHT22;11620;50.050;8.690;2023-04-25T09:01:05;11.70;99.90
22908;DHT22;11620;50.050;8.690;2023-04-25T09:03:52;11.60;99.90
22908;DHT22;11620;50.050;8.690;2023-04-25T09:06:38;11.40;99.90
22908;DHT22;11620;50.050;8.690;2023-04-25T09:09:24;11.60;99.90
22908;DHT22;11620;50.050;8.690;2023-04-25T09:12:11;11.80;99.90
22908;DHT22;11620;50.050;8.690;2023-04-25T09:15:08;12.30;99.90
22908;DHT22;11620;50.050;8.690;2023-04-25T09:17:58;12.70;99.90
22908;DHT22;11620;50.050;8.690;2023-04-25T09:20:45;13.20;99.90
22908;DHT22;11620;50.050;8.690;2023-04-25T09:23:43;13.50;99.90
22908;DHT22;11620;50.050;8.690;2023-04-25T09:26:29;13.80;99.90
22908;DHT22;11620;50.050;8.690;2023-04-25T09:29:16;13.60;99.90
22908;DHT22;11620;50.050;8.690;2023-04-25T09:32:29;13.20;99.90
22908;DHT22;11620;50.050;8.690;2023-04-25T09:35:24;12.80;99.90
22908;DHT22;11620;50.050;8.690;2023-04-25T09:38:13;12.80;99.90
22908;DHT22;11620;50.050;8.690;2023-04-25T09:41:00;13.00;99.90
22908;DHT22;11620;50.050;8.690;2023-04-25T09:43:49;12.90;99.90
22908;DHT22;11620;50.050;8.690;2023-04-25T09:46:36;12.90;99.90
22908;DHT22;11620;50.050;8.690;2023-04-25T09:49:23;12.90;99.90
22908;DHT22;11620;50.050;8.690;2023-04-25T09:52:18;12.80;99.90
22908;DHT22;11620;50.050;8.690;2023-04-25T09:55:05;12.80;99.90
22908;DHT22;11620;50.050;8.690;2023-04-25T09:57:52;12.80;99.90
22908;DHT22;11620;50.050;8.690;2023-04-25T10:00:41;12.80;99.90
22908;DHT22;11620;50.050;8.690;2023-04-25T10:03:30;12.90;99.90
22908;DHT22;11620;50.050;8.690;2023-04-25T10:06:22;13.20;99.90
22908;DHT22;11620;50.050;8.690;2023-04-25T10:09:12;13.10;99.90
22908;DHT22;11620;50.050;8.690;2023-04-25T10:11:59;13.00;99.90
22908;DHT22;11620;50.050;8.690;2023-04-25T10:14:46;12.90;99.90
22908;DHT22;11620;50.050;8.690;2023-04-25T10:17:32;12.80;99.90
22908;DHT22;11620;50.050;8.690;2023-04-25T10:20:20;12.70;99.90
22908;DHT22;11620;50.050;8.690;2023-04-25T10:23:13;12.60;99.90
22908;DHT22;11620;50.050;8.690;2023-04-25T10:25:59;12.50;99.90
22908;DHT22;11620;50.050;8.690;2023-04-25T10:29:04;12.50;99.90
22908;DHT22;11620;50.050;8.690;2023-04-25T10:31:51;12.30;99.90
22908;DHT22;11620;50.050;8.690;2023-04-25T10:34:42;12.40;99.90
22908;DHT22;11620;50.050;8.690;2023-04-25T10:37:29;12.50;99.90
22908;DHT22;11620;50.050;8.690;2023-04-25T10:39:56;12.50;99.90
22908;DHT22;11620;50.050;8.690;2023-04-25T10:42:41;12.40;99.90
22908;DHT22;11620;50.050;8.690;2023-04-25T10:45:27;12.40;99.90
22908;DHT22;11620;50.050;8.690;2023-04-25T10:48:25;12.30;99.90
22908;DHT22;11620;50.050;8.690;2023-04-25T10:51:17;12.20;99.90
22908;DHT22;11620;50.050;8.690;2023-04-25T10:54:06;12.10;99.90
22908;DHT22;11620;50.050;8.690;2023-04-25T10:56:53;12.10;99.90
22908;DHT22;11620;50.050;8.690;2023-04-25T10:59:39;11.90;99.90
22908;DHT22;11620;50.050;8.690;2023-04-25T11:02:27;11.70;99.90
22908;DHT22;11620;50.050;8.690;2023-04-25T11:08:11;11.40;99.90
22908;DHT22;11620;50.050;8.690;2023-04-25T11:10:58;11.20;99.90
22908;DHT22;11620;50.050;8.690;2023-04-25T11:13:49;11.20;99.90
22908;DHT22;11620;50.050;8.690;2023-04-25T11:16:36;11.20;99.90
22908;DHT22;11620;50.050;8.690;2023-04-25T11:19:23;11.40;99.90
22908;DHT22;11620;50.050;8.690;2023-04-25T11:22:10;11.50;99.90
22908;DHT22;11620;50.050;8.690;2023-04-25T11:24:56;11.70;99.90
22908;DHT22;11620;50.050;8.690;2023-04-25T11:27:52;11.80;99.90
22908;DHT22;11620;50.050;8.690;2023-04-25T11:30:39;11.90;99.90
22908;DHT22;11620;50.050;8.690;2023-04-25T11:33:26;11.70;99.90
22908;DHT22;11620;50.050;8.690;2023-04-25T11:36:15;11.70;99.90
22908;DHT22;11620;50.050;8.690;2023-04-25T11:39:02;11.40;99.90
22908;DHT22;11620;50.050;8.690;2023-04-25T11:41:48;11.20;99.90
22908;DHT22;11620;50.050;8.690;2023-04-25T11:44:34;11.20;99.90
22908;DHT22;11620;50.050;8.690;2023-04-25T11:47:28;11.10;99.90
22908;DHT22;11620;50.050;8.690;2023-04-25T11:50:15;11.10;99.90
22908;DHT22;11620;50.050;8.690;2023-04-25T11:53:01;11.20;99.90
22908;DHT22;11620;50.050;8.690;2023-04-25T11:55:47;11.30;99.90
22908;DHT22;11620;50.050;8.690;2023-04-25T11:58:54;11.30;99.90
22908;DHT22;11620;50.050;8.690;2023-04-25T12:01:41;11.40;99.90
22908;DHT22;11620;50.050;8.690;2023-04-25T12:04:33;11.50;99.90
22908;DHT22;11620;50.050;8.690;2023-04-25T12:07:19;11.30;99.90
22908;DHT22;11620;50.050;8.690;2023-04-25T12:10:10;11.30;99.90
22908;DHT22;11620;50.050;8.690;2023-04-25T12:12:57;11.40;99.90
22908;DHT22;11620;50.050;8.690;2023-04-25T12:15:43;11.50;99.90
22908;DHT22;11620;50.050;8.690;2023-04-25T12:18:30;11.60;99.90
22908;DHT22;11620;50.050;8.690;2023-04-25T12:21:16;11.60;99.90
22908;DHT22;11620;50.050;8.690;2023-04-25T12:24:14;11.60;99.90
22908;DHT22;11620;50.050;8.690;2023-04-25T12:27:05;11.70;99.90
22908;DHT22;11620;50.050;8.690;2023-04-25T12:29:55;11.80;99.90
22908;DHT22;11620;50.050;8.690;2023-04-25T12:32:42;11.90;99.90
22908;DHT22;11620;50.050;8.690;2023-04-25T12:35:28;12.10;99.90
22908;DHT22;11620;50.050;8.690;2023-04-25T12:38:28;12.30;99.90
22908;DHT22;11620;50.050;8.690;2023-04-25T12:41:17;12.30;99.90
22908;DHT22;11620;50.050;8.690;2023-04-25T12:44:03;12.40;99.90
22908;DHT22;11620;50.050;8.690;2023-04-25T12:46:50;12.20;99.90
22908;DHT22;11620;50.050;8.690;2023-04-25T12:49:36;12.10;99.90
22908;DHT22;11620;50.050;8.690;2023-04-25T12:52:23;12.00;99.90
22908;DHT22;11620;50.050;8.690;2023-04-25T12:55:09;11.90;99.90
22908;DHT22;11620;50.050;8.690;2023-04-25T12:57:55;12.00;99.90
22908;DHT22;11620;50.050;8.690;2023-04-25T13:00:42;12.00;99.90
22908;DHT22;11620;50.050;8.690;2023-04-25T13:03:29;11.90;99.90
22908;DHT22;11620;50.050;8.690;2023-04-25T13:06:16;12.00;99.90
22908;DHT22;11620;50.050;8.690;2023-04-25T13:09:03;12.10;99.90
22908;DHT22;11620;50.050;8.690;2023-04-25T13:11:49;12.00;99.90
22908;DHT22;11620;50.050;8.690;2023-04-25T13:14:36;12.00;99.90
22908;DHT22;11620;50.050;8.690;2023-04-25T13:17:22;11.90;99.90
22908;DHT22;11620;50.050;8.690;2023-04-25T13:20:09;12.10;99.90
22908;DHT22;11620;50.050;8.690;2023-04-25T13:22:55;12.20;99.90
22908;DHT22;11620;50.050;8.690;2023-04-25T13:25:42;12.20;99.90
22908;DHT22;11620;50.050;8.690;2023-04-25T13:28:29;12.30;99.90
22908;DHT22;11620;50.050;8.690;2023-04-25T13:31:15;12.30;99.90
22908;DHT22;11620;50.050;8.690;2023-04-25T13:34:02;12.40;99.90
22908;DHT22;11620;50.050;8.690;2023-04-25T13:36:48;12.50;99.90
22908;DHT22;11620;50.050;8.690;2023-04-25T13:39:34;12.50;99.90
22908;DHT22;11620;50.050;8.690;2023-04-25T13:42:21;12.50;99.90
22908;DHT22;11620;50.050;8.690;2023-04-25T13:45:07;12.90;99.90
22908;DHT22;11620;50.050;8.690;2023-04-25T13:47:54;13.60;99.90
22908;DHT22;11620;50.050;8.690;2023-04-25T13:50:40;13.90;99.90
22908;DHT22;11620;50.050;8.690;2023-04-25T13:53:26;13.80;99.90
22908;DHT22;11620;50.050;8.690;2023-04-25T13:56:13;13.50;99.90
22908;DHT22;11620;50.050;8.690;2023-04-25T13:58:59;13.20;99.90
22908;DHT22;11620;50.050;8.690;2023-04-25T14:01:45;12.70;99.90
22908;DHT22;11620;50.050;8.690;2023-04-25T14:04:32;12.60;99.90
22908;DHT22;11620;50.050;8.690;2023-04-25T14:07:18;12.60;99.90
22908;DHT22;11620;50.050;8.690;2023-04-25T14:10:07;12.80;99.90
22908;DHT22;11620;50.050;8.690;2023-04-25T14:12:53;12.70;99.90
22908;DHT22;11620;50.050;8.690;2023-04-25T14:15:40;12.70;99.90
22908;DHT22;11620;50.050;8.690;2023-04-25T14:18:26;12.80;99.90
22908;DHT22;11620;50.050;8.690;2023-04-25T14:21:12;12.90;99.90
22908;DHT22;11620;50.050;8.690;2023-04-25T14:23:58;13.10;99.90
22908;DHT22;11620;50.050;8.690;2023-04-25T14:26:45;13.40;99.90
22908;DHT22;11620;50.050;8.690;2023-04-25T14:29:31;13.70;99.90
22908;DHT22;11620;50.050;8.690;2023-04-25T14:32:17;13.90;99.90
22908;DHT22;11620;50.050;8.690;2023-04-25T14:35:04;14.00;99.90
22908;DHT22;11620;50.050;8.690;2023-04-25T14:37:52;14.30;99.90
22908;DHT22;11620;50.050;8.690;2023-04-25T14:40:39;14.40;99.90
22908;DHT22;11620;50.050;8.690;2023-04-25T14:43:25;14.30;99.90
22908;DHT22;11620;50.050;8.690;2023-04-25T14:46:11;14.10;99.90
22908;DHT22;11620;50.050;8.690;2023-04-25T14:48:58;13.80;99.90
22908;DHT22;11620;50.050;8.690;2023-04-25T14:51:44;13.40;99.90
22908;DHT22;11620;50.050;8.690;2023-04-25T14:54:30;13.00;99.90
22908;DHT22;11620;50.050;8.690;2023-04-25T14:57:17;13.00;99.90
22908;DHT22;11620;50.050;8.690;2023-04-25T15:00:04;12.80;99.90
22908;DHT22;11620;50.050;8.690;2023-04-25T15:02:53;12.60;99.90
22908;DHT22;11620;50.050;8.690;2023-04-25T15:05:39;12.50;99.90
22908;DHT22;11620;50.050;8.690;2023-04-25T15:08:26;12.30;99.90
22908;DHT22;11620;50.050;8.690;2023-04-25T15:11:12;12.40;99.90
22908;DHT22;11620;50.050;8.690;2023-04-25T15:13:59;12.50;99.90
22908;DHT22;11620;50.050;8.690;2023-04-25T15:16:45;12.60;99.90
22908;DHT22;11620;50.050;8.690;2023-04-25T15:19:32;12.50;99.90
22908;DHT22;11620;50.050;8.690;2023-04-25T15:22:18;12.50;99.90
22908;DHT22;11620;50.050;8.690;2023-04-25T15:25:05;12.60;99.90
22908;DHT22;11620;50.050;8.690;2023-04-25T15:27:53;12.40;99.90
22908;DHT22;11620;50.050;8.690;2023-04-25T15:30:41;12.40;99.90
22908;DHT22;11620;50.050;8.690;2023-04-25T15:33:27;12.30;99.90
22908;DHT22;11620;50.050;8.690;2023-04-25T15:36:13;12.30;99.90
22908;DHT22;11620;50.050;8.690;2023-04-25T15:39:02;12.30;99.90
22908;DHT22;11620;50.050;8.690;2023-04-25T15:41:48;12.20;99.90
22908;DHT22;11620;50.050;8.690;2023-04-25T15:44:35;12.30;99.90
22908;DHT22;11620;50.050;8.690;2023-04-25T15:47:21;12.20;99.90
22908;DHT22;11620;50.050;8.690;2023-04-25T15:50:08;12.30;99.90
22908;DHT22;11620;50.050;8.690;2023-04-25T15:52:55;12.30;99.90
22908;DHT22;11620;50.050;8.690;2023-04-25T15:55:42;12.20;99.90
22908;DHT22;11620;50.050;8.690;2023-04-25T15:58:29;12.10;99.90
22908;DHT22;11620;50.050;8.690;2023-04-25T16:01:16;12.10;99.90
22908;DHT22;11620;50.050;8.690;2023-04-25T16:04:02;11.80;99.90
22908;DHT22;11620;50.050;8.690;2023-04-25T16:06:48;11.90;99.90
22908;DHT22;11620;50.050;8.690;2023-04-25T16:09:35;12.00;99.90
22908;DHT22;11620;50.050;8.690;2023-04-25T16:12:21;12.10;99.90
22908;DHT22;11620;50.050;8.690;2023-04-25T16:15:08;12.10;99.90
22908;DHT22;11620;50.050;8.690;2023-04-25T16:17:54;12.20;99.90
22908;DHT22;11620;50.050;8.690;2023-04-25T16:20:41;12.30;99.90
22908;DHT22;11620;50.050;8.690;2023-04-25T16:23:27;12.20;99.90
22908;DHT22;11620;50.050;8.690;2023-04-25T16:26:13;12.20;99.90
22908;DHT22;11620;50.050;8.690;2023-04-25T16:29:02;12.00;99.90
22908;DHT22;11620;50.050;8.690;2023-04-25T16:31:49;12.00;99.90
22908;DHT22;11620;50.050;8.690;2023-04-25T16:34:35;12.00;99.90
22908;DHT22;11620;50.050;8.690;2023-04-25T16:37:23;11.80;99.90
22908;DHT22;11620;50.050;8.690;2023-04-25T16:40:10;11.90;99.90
22908;DHT22;11620;50.050;8.690;2023-04-25T16:42:57;11.90;99.90
22908;DHT22;11620;50.050;8.690;2023-04-25T16:45:43;11.80;99.90
22908;DHT22;11620;50.050;8.690;2023-04-25T16:48:29;11.80;99.90
22908;DHT22;11620;50.050;8.690;2023-04-25T16:51:16;11.70;99.90
22908;DHT22;11620;50.050;8.690;2023-04-25T16:54:02;11.70;99.90
22908;DHT22;11620;50.050;8.690;2023-04-25T16:56:49;11.60;99.90
22908;DHT22;11620;50.050;8.690;2023-04-25T16:59:36;11.50;99.90
22908;DHT22;11620;50.050;8.690;2023-04-25T17:02:22;11.50;99.90
22908;DHT22;11620;50.050;8.690;2023-04-25T17:05:08;11.30;99.90
22908;DHT22;11620;50.050;8.690;2023-04-25T17:07:55;11.40;99.90
22908;DHT22;11620;50.050;8.690;2023-04-25T17:10:41;11.40;99.90
22908;DHT22;11620;50.050;8.690;2023-04-25T17:13:28;11.40;99.90
22908;DHT22;11620;50.050;8.690;2023-04-25T17:16:18;11.30;99.90
22908;DHT22;11620;50.050;8.690;2023-04-25T17:19:07;11.30;99.90
22908;DHT22;11620;50.050;8.690;2023-04-25T17:21:54;11.20;99.90
22908;DHT22;11620;50.050;8.690;2023-04-25T17:24:40;11.20;99.90
22908;DHT22;11620;50.050;8.690;2023-04-25T17:27:27;11.20;99.90
22908;DHT22;11620;50.050;8.690;2023-04-25T17:30:13;11.20;99.90
22908;DHT22;11620;50.050;8.690;2023-04-25T17:33:00;11.10;99.90
22908;DHT22;11620;50.050;8.690;2023-04-25T17:35:46;11.00;99.90
22908;DHT22;11620;50.050;8.690;2023-04-25T17:38:33;11.00;99.90
22908;DHT22;11620;50.050;8.690;2023-04-25T17:41:20;11.00;99.90
22908;DHT22;11620;50.050;8.690;2023-04-25T17:44:07;10.90;99.90
22908;DHT22;11620;50.050;8.690;2023-04-25T17:46:53;10.90;99.90